Time;durP1;ratioP1;P1;durP2;ratioP2;P2;SDS_P1;SDS_P2;PMS_P1;PMS_P2;Temp;Humidity;BMP_temperature;BMP_pressure;BME280_temperature;BME280_humidity;BME280_pressure;Samples;Min_cycle;Max_cycle;Signal;HPM_P1;HPM_P2
2022/10/14 04:00:30;;;;;;;0.60;0.10;;;;;;;;;;5974287;23;20361;31
2022/10/14 04:02:57;;;;;;;0.53;0.20;;;14.20;1.00;;;;;;4928878;29;20489;-71
2022/10/14 04:05:28;;;;;;;1.27;0.97;;;14.10;1.00;;;;;;4925031;29;20500;-73
2022/10/14 04:07:55;;;;;;;0.90;0.77;;;14.00;1.00;;;;;;4926771;29;20508;-72
2022/10/14 04:10:23;;;;;;;0.57;0.10;;;14.00;1.00;;;;;;4934330;29;20868;-72
2022/10/14 04:15:22;;;;;;;0.57;0.10;;;14.10;1.00;;;;;;4907810;29;20479;-77
2022/10/14 04:17:51;;;;;;;1.57;1.00;;;14.10;1.00;;;;;;4909997;29;20454;-79
2022/10/14 04:20:19;;;;;;;0.60;0.20;;;14.10;1.00;;;;;;4898529;29;20514;-77
2022/10/14 04:22:47;;;;;;;0.57;0.10;;;14.10;1.00;;;;;;4920447;29;20492;-79
2022/10/14 04:25:16;;;;;;;0.50;0.10;;;;;;;;;;4909157;29;20525;-76
2022/10/14 04:27:43;;;;;;;0.50;0.10;;;14.20;1.00;;;;;;4910777;29;20509;-77
2022/10/14 04:30:12;;;;;;;2.70;2.50;;;14.20;1.00;;;;;;4906236;29;20446;-77
2022/10/14 04:32:40;;;;;;;0.60;0.20;;;14.20;1.00;;;;;;4928868;29;20521;-77
2022/10/14 04:35:09;;;;;;;0.60;0.10;;;14.20;1.00;;;;;;4899157;29;20466;-77
2022/10/14 04:37:37;;;;;;;0.90;0.60;;;14.20;1.00;;;;;;4897951;29;20505;-77
2022/10/14 04:40:06;;;;;;;0.60;0.10;;;14.20;1.00;;;;;;4899130;29;20809;-78
2022/10/14 04:42:34;;;;;;;0.60;0.10;;;14.10;1.00;;;;;;4905452;29;20481;-78
2022/10/14 04:45:02;;;;;;;0.60;0.10;;;14.20;1.00;;;;;;4909734;29;20477;-78
2022/10/14 04:47:30;;;;;;;0.60;0.10;;;14.20;1.00;;;;;;4911835;29;20518;-78
2022/10/14 04:49:58;;;;;;;0.50;0.10;;;14.20;1.00;;;;;;4905815;29;20462;-78
2022/10/14 04:52:27;;;;;;;0.60;0.10;;;14.20;1.00;;;;;;4898046;29;20442;-78
2022/10/14 04:54:55;;;;;;;0.57;0.10;;;14.20;1.00;;;;;;4908771;29;20524;-77
2022/10/14 04:57:22;;;;;;;0.60;0.10;;;14.20;1.00;;;;;;4916298;29;20457;-78
2022/10/14 04:59:50;;;;;;;0.60;0.20;;;14.30;1.00;;;;;;4916925;29;20453;-77
2022/10/14 05:02:18;;;;;;;1.50;1.40;;;14.30;1.00;;;;;;4916728;29;20536;-77
2022/10/14 05:04:47;;;;;;;0.60;0.10;;;14.20;1.00;;;;;;4916896;29;20525;-78
2022/10/14 05:07:15;;;;;;;0.60;0.10;;;13.70;1.00;;;;;;4915667;29;21028;-77
2022/10/14 05:09:44;;;;;;;0.50;0.10;;;14.30;1.00;;;;;;4915553;29;20537;-77
2022/10/14 05:12:18;;;;;;;0.53;0.10;;;14.30;1.00;;;;;;4915864;29;20455;-78
2022/10/14 05:14:47;;;;;;;0.60;0.10;;;14.30;1.00;;;;;;4915817;29;20614;-78
2022/10/14 05:17:14;;;;;;;0.53;0.10;;;14.30;1.00;;;;;;4915796;29;20449;-78
2022/10/14 05:19:42;;;;;;;0.60;0.10;;;14.30;1.00;;;;;;4908442;29;21015;-78
2022/10/14 05:22:10;;;;;;;0.60;0.20;;;14.40;1.00;;;;;;4914667;29;21076;-77
2022/10/14 05:24:38;;;;;;;0.60;0.10;;;14.30;1.00;;;;;;4915702;29;20477;-78
2022/10/14 05:27:11;;;;;;;0.60;0.10;;;14.30;1.00;;;;;;4916361;29;20860;-77
2022/10/14 05:29:42;;;;;;;0.50;0.10;;;14.30;1.00;;;;;;4918697;29;20583;-77
2022/10/14 05:32:09;;;;;;;0.60;0.10;;;14.40;1.00;;;;;;4914600;29;20445;-79
2022/10/14 05:34:37;;;;;;;0.50;0.10;;;14.40;1.00;;;;;;4910843;29;20508;-79
2022/10/14 05:37:05;;;;;;;0.50;0.10;;;14.40;1.00;;;;;;4922560;29;21014;-80
2022/10/14 05:39:33;;;;;;;0.57;0.10;;;14.40;1.00;;;;;;4902249;29;20488;-78
2022/10/14 05:42:01;;;;;;;1.27;1.27;;;14.40;1.00;;;;;;4904879;29;20488;-77
2022/10/14 05:44:30;;;;;;;0.60;0.10;;;14.40;1.00;;;;;;4905219;29;20520;-79
2022/10/14 05:46:58;;;;;;;0.60;0.10;;;14.30;1.00;;;;;;4913407;29;20485;-79
2022/10/14 05:49:26;;;;;;;0.60;0.10;;;14.30;1.00;;;;;;4912268;29;20457;-77
2022/10/14 05:51:54;;;;;;;0.57;0.10;;;14.30;1.00;;;;;;4904921;29;20450;-77
2022/10/14 05:54:22;;;;;;;0.50;0.10;;;14.30;1.00;;;;;;4896628;29;20498;-77
2022/10/14 05:56:50;;;;;;;0.60;0.30;;;14.30;1.00;;;;;;4897542;29;20513;-78
2022/10/14 05:59:18;;;;;;;0.53;0.10;;;14.30;1.00;;;;;;4897161;29;20518;-78
2022/10/14 06:01:47;;;;;;;0.50;0.10;;;14.30;1.00;;;;;;4904609;29;20453;-79
2022/10/14 06:04:17;;;;;;;0.50;0.10;;;14.30;1.00;;;;;;4896565;29;20545;-77
2022/10/14 06:06:45;;;;;;;0.60;0.10;;;14.30;1.60;;;;;;4896599;29;20537;-77
2022/10/14 06:09:13;;;;;;;0.50;0.10;;;14.30;3.40;;;;;;4896964;29;20482;-77
2022/10/14 06:11:41;;;;;;;0.50;0.10;;;14.40;4.20;;;;;;4896310;29;20907;-75
2022/10/14 06:14:09;;;;;;;0.60;0.20;;;14.40;4.60;;;;;;4902885;29;20512;-76
2022/10/14 06:16:37;;;;;;;1.03;1.03;;;14.40;4.30;;;;;;4916656;29;20504;-80
2022/10/14 06:19:06;;;;;;;0.60;0.10;;;14.40;3.90;;;;;;4917040;29;20453;-80
2022/10/14 06:21:34;;;;;;;0.60;0.10;;;14.40;4.90;;;;;;4911556;29;20453;-79
2022/10/14 06:24:02;;;;;;;0.60;0.10;;;14.50;2.90;;;;;;4896447;29;21060;-79
2022/10/14 06:26:30;;;;;;;0.57;0.20;;;14.50;4.00;;;;;;4896892;29;20533;-79
2022/10/14 06:28:58;;;;;;;8.23;2.70;;;14.50;2.90;;;;;;4898381;29;20445;-78
2022/10/14 06:31:26;;;;;;;0.60;0.50;;;14.50;2.40;;;;;;4917264;29;20469;-76
2022/10/14 06:33:59;;;;;;;0.53;0.10;;;14.60;1.00;;;;;;4915677;29;20469;-80
2022/10/14 06:36:28;;;;;;;0.50;0.10;;;14.60;1.00;;;;;;4916333;29;20457;-78
2022/10/14 06:38:56;;;;;;;0.60;0.10;;;14.60;1.00;;;;;;4915622;29;20472;-77
2022/10/14 06:41:24;;;;;;;0.50;0.10;;;14.60;1.00;;;;;;4915300;29;20564;-78
2022/10/14 06:43:52;;;;;;;0.60;0.10;;;14.70;1.00;;;;;;4916192;29;20560;-78
2022/10/14 06:46:20;;;;;;;0.53;0.10;;;14.60;1.00;;;;;;4916179;29;20457;-78
2022/10/14 06:48:48;;;;;;;0.50;0.10;;;14.60;1.00;;;;;;4915871;29;20833;-78
2022/10/14 06:51:17;;;;;;;0.50;0.10;;;14.60;1.00;;;;;;4920320;29;20472;-78
2022/10/14 06:53:47;;;;;;;0.60;0.20;;;14.60;1.00;;;;;;4919969;29;20456;-78
2022/10/14 06:56:14;;;;;;;0.50;0.10;;;14.60;1.00;;;;;;4920089;29;20452;-79
2022/10/14 06:58:43;;;;;;;1.33;1.23;;;;;;;;;;4919762;29;20469;-76
2022/10/14 07:01:11;;;;;;;2.10;2.00;;;14.70;1.00;;;;;;4920959;29;20468;-79
2022/10/14 07:03:39;;;;;;;1.17;0.93;;;14.60;1.00;;;;;;4909325;29;20488;-78
2022/10/14 07:06:08;;;;;;;0.53;0.10;;;14.60;1.00;;;;;;4900627;29;20513;-78
2022/10/14 07:08:36;;;;;;;0.50;0.20;;;14.60;1.00;;;;;;4906887;29;20603;-78
2022/10/14 07:11:06;;;;;;;0.97;0.77;;;14.50;1.00;;;;;;4918858;29;20448;-78
2022/10/14 07:13:34;;;;;;;0.60;0.10;;;14.50;1.00;;;;;;4918681;29;20508;-78
2022/10/14 07:16:02;;;;;;;0.50;0.10;;;14.60;1.00;;;;;;4919592;29;20460;-77
2022/10/14 07:18:30;;;;;;;0.60;0.20;;;14.60;1.00;;;;;;4900754;29;20490;-78
2022/10/14 07:21:02;;;;;;;0.60;0.10;;;14.60;1.00;;;;;;4916119;29;20483;-78
2022/10/14 07:23:30;;;;;;;0.60;0.10;;;14.70;1.00;;;;;;4899946;29;21052;-78
2022/10/14 07:25:58;;;;;;;0.60;0.10;;;14.70;1.00;;;;;;4908330;29;20445;-80
2022/10/14 07:28:28;;;;;;;0.53;0.20;;;14.80;1.00;;;;;;4919350;29;20459;-79
2022/10/14 07:31:00;;;;;;;0.57;0.10;;;14.80;1.00;;;;;;4919812;29;20536;-79
2022/10/14 07:33:28;;;;;;;0.60;0.10;;;14.90;1.00;;;;;;4919812;29;20540;-79
2022/10/14 07:36:01;;;;;;;0.60;0.10;;;14.90;1.00;;;;;;4921316;29;20453;-80
2022/10/14 07:38:29;;;;;;;0.50;0.10;;;14.90;1.00;;;;;;4917650;29;20465;-79
2022/10/14 07:40:58;;;;;;;0.60;0.10;;;15.00;1.00;;;;;;4918987;29;20460;-77
2022/10/14 07:43:29;;;;;;;0.60;0.10;;;15.00;1.00;;;;;;4909607;29;21028;-78
2022/10/14 07:46:01;;;;;;;0.60;0.10;;;15.00;1.00;;;;;;4912951;29;20456;-78
2022/10/14 07:48:31;;;;;;;1.13;0.70;;;15.00;1.00;;;;;;4916320;29;20456;-76
2022/10/14 07:51:21;;;;;;;0.60;0.10;;;15.10;1.00;;;;;;4898474;29;20859;-77
2022/10/14 07:53:51;;;;;;;0.60;0.30;;;15.10;1.00;;;;;;4898505;29;20488;-79
2022/10/14 07:56:19;;;;;;;0.60;0.10;;;15.00;1.00;;;;;;4911976;29;21197;-78
2022/10/14 07:58:49;;;;;;;0.60;0.10;;;15.00;1.00;;;;;;4906956;29;20461;-76
2022/10/14 08:01:18;;;;;;;0.60;0.10;;;15.10;1.00;;;;;;4915774;29;20492;-78
2022/10/14 08:03:47;;;;;;;0.60;0.10;;;15.10;1.00;;;;;;4909893;29;20493;-77
2022/10/14 08:06:15;;;;;;;0.60;0.10;;;15.10;1.00;;;;;;4916216;29;20457;-78
2022/10/14 08:08:43;;;;;;;0.60;0.10;;;15.20;1.00;;;;;;4901686;29;20518;-76
2022/10/14 08:11:14;;;;;;;0.70;0.30;;;15.20;1.00;;;;;;4906319;29;20859;-80
2022/10/14 08:13:42;;;;;;;0.60;0.10;;;15.10;1.00;;;;;;4907418;29;20493;-75
2022/10/14 08:16:16;;;;;;;0.60;0.20;;;15.20;1.00;;;;;;4898084;29;20442;-76
2022/10/14 08:18:45;;;;;;;0.60;0.20;;;15.20;1.00;;;;;;4913712;29;20493;-77
2022/10/14 08:21:14;;;;;;;0.60;0.10;;;15.20;1.00;;;;;;4916044;29;20457;-78
2022/10/14 08:23:42;;;;;;;0.60;0.10;;;15.20;1.00;;;;;;4915982;29;20563;-78
2022/10/14 08:26:20;;;;;;;0.60;0.10;;;15.20;1.00;;;;;;4916947;29;20437;-78
2022/10/14 08:28:49;;;;;;;0.60;0.10;;;15.20;1.00;;;;;;4918046;29;20501;-77
2022/10/14 08:31:18;;;;;;;0.60;0.10;;;15.20;1.00;;;;;;4917248;29;20472;-77
2022/10/14 08:33:47;;;;;;;0.60;0.10;;;15.40;1.00;;;;;;4918738;29;20469;-76
2022/10/14 08:36:16;;;;;;;0.60;0.10;;;15.30;1.00;;;;;;4917825;29;20467;-75
2022/10/14 08:38:44;;;;;;;1.07;1.03;;;15.40;1.00;;;;;;4917882;29;20999;-76
2022/10/14 08:41:30;;;;;;;0.60;0.10;;;15.40;1.00;;;;;;4917953;29;20495;-78
2022/10/14 08:44:10;;;;;;;0.60;0.10;;;15.50;1.00;;;;;;4898771;29;20489;-76
2022/10/14 08:46:43;;;;;;;0.60;0.10;;;15.60;1.00;;;;;;4897956;29;20815;-77
2022/10/14 08:49:24;;;;;;;0.60;0.10;;;15.60;1.00;;;;;;4912876;29;20512;-78
2022/10/14 08:51:56;;;;;;;0.60;0.10;;;15.60;1.00;;;;;;4917809;29;20448;-78
2022/10/14 08:54:32;;;;;;;0.60;0.10;;;15.70;1.00;;;;;;4899171;29;21224;-75
2022/10/14 08:57:00;;;;;;;0.60;0.10;;;15.70;1.00;;;;;;4898217;29;20980;-75
2022/10/14 08:59:29;;;;;;;0.60;0.10;;;15.70;1.00;;;;;;4898860;29;20530;-76
2022/10/14 09:02:03;;;;;;;0.60;0.10;;;15.80;1.00;;;;;;4899334;29;20473;-77
2022/10/14 09:04:36;;;;;;;0.60;0.10;;;15.80;1.00;;;;;;4900086;29;20912;-77
2022/10/14 09:07:05;;;;;;;0.60;0.10;;;15.80;1.00;;;;;;4899548;29;20509;-77
2022/10/14 09:09:42;;;;;;;0.60;0.10;;;15.80;1.00;;;;;;4904760;29;20513;-77
2022/10/14 09:12:13;;;;;;;0.60;0.10;;;15.80;1.00;;;;;;4906558;29;20457;-77
2022/10/14 09:14:45;;;;;;;0.60;0.10;;;15.70;1.00;;;;;;4871330;29;1040275;-76
2022/10/14 09:17:19;;;;;;;0.60;0.10;;;15.70;1.00;;;;;;4916703;29;20209;-78
2022/10/14 09:19:51;;;;;;;0.60;0.10;;;15.80;1.00;;;;;;4918225;29;20444;-77
2022/10/14 09:22:19;;;;;;;0.60;0.10;;;15.80;1.00;;;;;;4917498;29;20488;-77
2022/10/14 09:24:48;;;;;;;0.60;0.10;;;15.80;1.00;;;;;;4917621;29;20948;-78
2022/10/14 09:27:20;;;;;;;0.60;0.10;;;15.80;1.00;;;;;;4918156;29;20554;-78
2022/10/14 09:29:51;;;;;;;0.60;0.10;;;15.80;1.00;;;;;;4917831;29;20433;-77
2022/10/14 09:32:29;;;;;;;0.60;0.10;;;15.80;1.00;;;;;;4917242;29;20457;-76
2022/10/14 09:34:59;;;;;;;0.60;0.10;;;15.80;1.00;;;;;;4917771;29;20829;-76
2022/10/14 09:37:28;;;;;;;0.60;0.10;;;15.80;1.00;;;;;;4917450;29;20540;-76
2022/10/14 09:39:59;;;;;;;0.60;0.10;;;15.90;1.00;;;;;;4916801;29;20449;-78
2022/10/14 09:42:40;;;;;;;0.60;0.10;;;15.90;1.00;;;;;;4910455;29;20450;-77
2022/10/14 09:45:11;;;;;;;0.60;0.10;;;15.90;1.00;;;;;;4898513;29;20496;-76
2022/10/14 09:47:46;;;;;;;0.60;0.10;;;15.90;1.00;;;;;;4897632;29;20461;-77
2022/10/14 09:50:31;;;;;;;0.60;0.10;;;15.90;1.00;;;;;;4903330;29;20940;-76
2022/10/14 09:53:02;;;;;;;0.60;0.10;;;16.00;1.00;;;;;;4916516;29;20487;-78
2022/10/14 09:55:31;;;;;;;0.60;0.10;;;16.00;1.00;;;;;;4918735;29;20445;-77
2022/10/14 09:58:05;;;;;;;0.60;0.10;;;16.10;1.00;;;;;;4920251;29;20456;-77
2022/10/14 10:00:36;;;;;;;0.60;0.10;;;14.10;1.00;;;;;;4919076;29;20463;-77
2022/10/14 10:03:07;;;;;;;0.60;0.10;;;16.10;1.00;;;;;;4916824;29;20451;-77
2022/10/14 10:05:40;;;;;;;0.60;0.10;;;16.00;1.00;;;;;;4917446;29;20551;-78
2022/10/14 10:08:17;;;;;;;0.60;0.10;;;16.10;1.00;;;;;;4918059;29;20512;-77
2022/10/14 10:10:59;;;;;;;0.60;0.10;;;16.20;1.00;;;;;;4917133;29;20459;-71
2022/10/14 10:13:38;;;;;;;0.60;0.10;;;16.30;1.00;;;;;;4940170;23;21395;-72
2022/10/14 10:16:07;;;;;;;0.60;0.10;;;16.30;1.00;;;;;;4952178;29;20814;-75
2022/10/14 10:18:37;;;;;;;0.60;0.10;;;16.40;1.00;;;;;;4952288;28;20472;-74
2022/10/14 10:21:15;;;;;;;0.60;0.10;;;16.40;1.00;;;;;;4959984;28;20463;-74
2022/10/14 10:23:52;;;;;;;0.60;0.10;;;16.60;1.00;;;;;;4958017;28;20518;-74
2022/10/14 10:26:24;;;;;;;0.60;0.10;;;16.60;1.00;;;;;;4925350;29;20480;-73
2022/10/14 10:28:56;;;;;;;0.60;0.10;;;16.70;1.00;;;;;;4916496;29;20482;-74
2022/10/14 10:31:47;;;;;;;0.60;0.10;;;16.80;1.00;;;;;;4917651;29;20506;-73
2022/10/14 10:34:50;;;;;;;0.60;0.10;;;17.00;1.00;;;;;;4933292;29;20479;-73
2022/10/14 10:37:25;;;;;;;0.60;0.10;;;17.00;1.00;;;;;;4932437;29;20447;-74
2022/10/14 10:40:06;;;;;;;0.60;0.10;;;17.00;1.00;;;;;;4923595;29;20455;-73
2022/10/14 10:42:44;;;;;;;0.60;0.10;;;17.00;1.00;;;;;;4937318;29;20452;-73
2022/10/14 10:45:31;;;;;;;0.60;0.10;;;17.00;1.00;;;;;;4924725;29;20494;-74
2022/10/14 10:48:09;;;;;;;0.60;0.10;;;17.10;1.00;;;;;;4918932;29;20896;-74
2022/10/14 10:50:48;;;;;;;0.60;0.10;;;17.00;1.00;;;;;;4918039;29;20453;-74
2022/10/14 10:53:44;;;;;;;0.60;0.10;;;17.00;1.00;;;;;;4917259;29;20448;-74
2022/10/14 10:56:21;;;;;;;0.60;0.10;;;17.00;1.00;;;;;;4928928;29;20476;-75
2022/10/14 10:59:01;;;;;;;0.60;0.10;;;17.00;1.00;;;;;;4930938;29;20463;-75
2022/10/14 11:01:36;;;;;;;0.60;0.20;;;17.00;1.00;;;;;;4926291;29;20495;-73
2022/10/14 11:04:35;;;;;;;0.60;0.10;;;16.80;1.00;;;;;;4938561;29;21035;-74
2022/10/14 11:13:01;;;;;;;1.47;0.83;;;16.80;1.00;;;;;;4936229;29;20970;-74
2022/10/14 11:15:41;;;;;;;0.60;0.10;;;16.80;1.00;;;;;;4935964;29;20480;-74
2022/10/14 11:18:19;;;;;;;0.60;0.10;;;16.80;1.00;;;;;;4930242;29;20451;-74
2022/10/14 11:21:01;;;;;;;0.60;0.10;;;16.80;1.00;;;;;;4940677;29;20469;-75
2022/10/14 11:23:40;;;;;;;0.60;0.30;;;16.70;1.00;;;;;;4947645;29;20451;-76
2022/10/14 11:26:20;;;;;;;0.60;0.10;;;16.60;1.00;;;;;;4923550;29;20504;-74
2022/10/14 11:28:58;;;;;;;0.60;0.10;;;16.60;1.00;;;;;;4934298;29;20829;-74
2022/10/14 11:31:37;;;;;;;1.57;0.60;;;16.70;1.00;;;;;;4919141;29;20456;-74
2022/10/14 11:34:41;;;;;;;1.27;1.03;;;16.60;1.00;;;;;;4934030;29;20468;-75
2022/10/14 11:37:20;;;;;;;0.60;0.10;;;16.60;1.00;;;;;;4964924;29;20472;-74
2022/10/14 11:39:55;;;;;;;0.60;0.10;;;16.60;1.00;;;;;;4954426;29;20459;-74
2022/10/14 11:42:32;;;;;;;0.60;0.10;;;16.60;1.00;;;;;;4930740;29;20458;-74
2022/10/14 11:45:20;;;;;;;0.60;0.10;;;16.60;1.00;;;;;;4945046;29;20487;-74
2022/10/14 11:47:52;;;;;;;1.80;0.73;;;16.60;1.00;;;;;;4927356;29;21049;-75
2022/10/14 11:50:26;;;;;;;0.60;0.10;;;16.50;1.00;;;;;;4927574;29;20486;-75
2022/10/14 11:53:00;;;;;;;0.60;0.10;;;16.50;1.00;;;;;;4937122;29;20469;-76
2022/10/14 11:55:34;;;;;;;0.60;0.10;;;16.40;1.00;;;;;;4938699;29;20889;-74
2022/10/14 11:58:09;;;;;;;0.60;0.10;;;16.40;1.00;;;;;;4939522;29;20488;-74
2022/10/14 12:00:38;;;;;;;0.60;0.10;;;16.40;1.00;;;;;;4937221;29;20529;-74
2022/10/14 12:03:12;;;;;;;0.60;0.10;;;16.40;1.00;;;;;;4948445;29;20461;-75
2022/10/14 12:05:45;;;;;;;1.40;0.70;;;17.00;1.00;;;;;;4942071;29;20482;-76
2022/10/14 12:08:21;;;;;;;0.60;0.20;;;16.50;1.00;;;;;;4951523;29;20452;-77
2022/10/14 12:10:55;;;;;;;0.60;0.10;;;16.40;1.00;;;;;;4945769;29;20513;-76
2022/10/14 12:13:31;;;;;;;0.60;0.10;;;16.40;1.00;;;;;;4930452;29;20489;-73
2022/10/14 12:16:01;;;;;;;0.60;0.10;;;16.40;1.00;;;;;;4933500;29;20462;-75
2022/10/14 12:18:31;;;;;;;0.60;0.10;;;16.40;1.00;;;;;;4944649;29;20459;-74
2022/10/14 12:21:18;;;;;;;0.60;0.10;;;16.40;1.00;;;;;;4948599;29;20452;-75
2022/10/14 12:23:49;;;;;;;0.60;0.10;;;16.40;1.00;;;;;;4941244;29;20460;-75
2022/10/14 12:26:50;;;;;;;0.60;0.10;;;16.50;1.00;;;;;;4934180;29;21249;-76
2022/10/14 12:29:21;;;;;;;0.60;0.30;;;16.50;1.00;;;;;;4932539;29;20462;-76
2022/10/14 12:32:05;;;;;;;0.60;0.30;;;16.40;1.00;;;;;;4939880;29;20464;-75
2022/10/14 12:34:36;;;;;;;0.60;0.20;;;16.20;1.00;;;;;;4926401;29;20480;-75
2022/10/14 12:37:48;;;;;;;1.00;0.47;;;16.20;1.00;;;;;;4933183;29;20437;-76
2022/10/14 12:40:29;;;;;;;0.60;0.10;;;16.10;1.00;;;;;;4937663;29;20449;-74
2022/10/14 12:43:17;;;;;;;0.60;0.10;;;16.10;1.00;;;;;;4946282;29;20471;-76
2022/10/14 12:46:00;;;;;;;2.20;2.10;;;16.10;1.00;;;;;;4915387;29;20663;-75
2022/10/14 12:48:32;;;;;;;0.60;0.10;;;16.10;1.00;;;;;;4930782;29;20483;-76
2022/10/14 12:51:10;;;;;;;0.60;0.10;;;16.10;1.00;;;;;;4938908;29;20468;-76
2022/10/14 12:53:40;;;;;;;0.60;0.10;;;16.20;1.00;;;;;;4940600;29;20498;-76
2022/10/14 12:56:10;;;;;;;0.60;0.10;;;16.20;1.00;;;;;;4932997;29;20448;-76
2022/10/14 12:58:42;;;;;;;0.70;0.30;;;16.20;1.00;;;;;;4936030;29;20510;-75
2022/10/14 13:01:18;;;;;;;0.60;0.10;;;16.20;1.00;;;;;;4917164;29;20496;-76
2022/10/14 13:03:54;;;;;;;0.60;0.10;;;16.10;1.00;;;;;;4928484;29;20963;-76
2022/10/14 13:06:35;;;;;;;0.60;0.10;;;16.10;1.00;;;;;;4944852;29;20910;-76
2022/10/14 13:09:34;;;;;;;0.60;0.10;;;16.10;1.00;;;;;;4955384;29;20513;-76
2022/10/14 13:12:33;;;;;;;0.60;0.10;;;16.10;1.00;;;;;;4862052;29;20508;-75
2022/10/14 13:15:05;;;;;;;0.60;0.13;;;16.10;1.00;;;;;;4928692;29;21014;-76
2022/10/14 13:17:45;;;;;;;0.60;0.10;;;16.10;1.00;;;;;;4936610;29;20448;-77
2022/10/14 13:20:51;;;;;;;0.60;0.10;;;16.10;1.00;;;;;;4941148;29;20450;-75
2022/10/14 13:23:31;;;;;;;0.60;0.10;;;16.10;1.00;;;;;;4923108;29;20791;-75
2022/10/14 13:26:14;;;;;;;0.60;0.10;;;16.20;1.00;;;;;;4921153;29;20467;-75
2022/10/14 13:28:48;;;;;;;0.60;0.10;;;16.20;1.00;;;;;;4930835;29;20582;-75
2022/10/14 13:31:23;;;;;;;11.13;5.00;;;16.20;1.00;;;;;;4938722;29;20991;-75
2022/10/14 13:33:54;;;;;;;0.60;0.10;;;16.20;1.00;;;;;;4946973;29;20446;-75
2022/10/14 13:36:31;;;;;;;0.60;0.10;;;16.20;1.00;;;;;;4928046;29;20448;-75
2022/10/14 13:39:01;;;;;;;0.60;0.10;;;16.20;1.00;;;;;;4928442;29;20940;-75
2022/10/14 13:41:33;;;;;;;0.60;0.10;;;16.20;1.00;;;;;;4923091;29;20507;-75
2022/10/14 13:44:02;;;;;;;0.60;0.10;;;16.20;1.00;;;;;;4933044;29;20559;-76
2022/10/14 13:46:36;;;;;;;0.60;0.20;;;16.20;1.00;;;;;;4935376;29;20522;-76
2022/10/14 13:49:06;;;;;;;0.60;0.10;;;16.30;1.00;;;;;;4925676;29;20539;-77
2022/10/14 13:51:44;;;;;;;0.60;0.10;;;16.30;1.00;;;;;;4943881;29;20825;-76
2022/10/14 13:54:19;;;;;;;0.60;0.10;;;16.30;1.00;;;;;;4937428;29;20534;-75
2022/10/14 13:56:58;;;;;;;0.60;0.10;;;16.30;1.00;;;;;;4930632;29;20443;-77
2022/10/14 13:59:47;;;;;;;0.60;0.10;;;16.30;1.00;;;;;;4922121;29;20543;-76
2022/10/14 14:02:39;;;;;;;0.60;0.10;;;16.30;1.00;;;;;;4932219;29;20455;-73
2022/10/14 14:05:14;;;;;;;0.60;0.10;;;16.30;1.00;;;;;;4925831;29;20504;-73
2022/10/14 14:07:43;;;;;;;0.60;0.10;;;16.30;1.00;;;;;;4930242;29;20494;-74
2022/10/14 14:10:31;;;;;;;0.60;0.10;;;16.40;1.00;;;;;;4928417;29;20441;-73
2022/10/14 14:13:02;;;;;;;0.60;0.20;;;16.40;1.00;;;;;;4929725;29;20535;-74
2022/10/14 14:15:30;;;;;;;0.60;0.10;;;16.30;1.00;;;;;;4928898;29;21005;-75
2022/10/14 14:17:59;;;;;;;0.60;0.10;;;16.30;1.00;;;;;;4936300;29;20452;-74
2022/10/14 14:20:28;;;;;;;0.60;0.10;;;16.40;1.00;;;;;;4932078;29;20456;-73
2022/10/14 14:22:58;;;;;;;0.60;0.10;;;16.30;1.00;;;;;;4935846;29;20494;-74
2022/10/14 14:25:27;;;;;;;0.60;0.10;;;16.30;1.00;;;;;;4919781;29;20473;-73
2022/10/14 14:28:15;;;;;;;0.60;0.10;;;16.30;1.00;;;;;;4929178;29;20484;-73
2022/10/14 14:30:50;;;;;;;0.60;0.10;;;16.30;1.00;;;;;;4917554;29;20456;-74
2022/10/14 14:33:28;;;;;;;0.60;0.10;;;16.30;1.00;;;;;;4937905;29;20458;-73
2022/10/14 14:35:58;;;;;;;0.60;0.10;;;16.30;1.00;;;;;;4930888;29;20897;-74
2022/10/14 14:38:29;;;;;;;0.60;0.20;;;16.30;1.00;;;;;;4932726;29;21301;-73
2022/10/14 14:41:01;;;;;;;0.60;0.10;;;16.40;1.00;;;;;;4935025;29;20479;-73
2022/10/14 14:43:30;;;;;;;0.60;0.10;;;16.40;1.00;;;;;;4920602;29;20960;-73
2022/10/14 14:46:05;;;;;;;0.60;0.10;;;16.40;1.00;;;;;;4931069;29;20524;-74
2022/10/14 14:48:35;;;;;;;0.60;0.10;;;16.40;1.00;;;;;;4931952;29;20518;-74
2022/10/14 14:51:03;;;;;;;0.60;0.10;;;16.40;1.00;;;;;;4946574;28;20452;-75
2022/10/14 14:53:31;;;;;;;0.60;0.10;;;16.40;1.00;;;;;;4952207;28;20565;-75
2022/10/14 14:56:04;;;;;;;0.60;0.10;;;16.40;1.00;;;;;;4959640;28;20452;-74
2022/10/14 14:58:43;;;;;;;0.60;0.10;;;16.40;1.00;;;;;;4954856;28;20546;-73
2022/10/14 15:01:19;;;;;;;0.60;0.10;;;16.40;1.00;;;;;;4948364;29;20452;-74
2022/10/14 15:03:53;;;;;;;0.60;0.10;;;16.40;1.00;;;;;;4948503;28;20509;-75
2022/10/14 15:06:40;;;;;;;0.60;0.10;;;16.40;1.00;;;;;;4952239;28;20433;-75
2022/10/14 15:09:24;;;;;;;0.60;0.10;;;16.40;1.00;;;;;;4952120;29;20949;-75
2022/10/14 15:11:54;;;;;;;0.60;0.10;;;16.40;1.00;;;;;;4969259;28;20454;-73
2022/10/14 15:14:32;;;;;;;0.60;0.10;;;16.40;1.00;;;;;;4964169;28;20538;-74
2022/10/14 15:17:00;;;;;;;0.60;0.10;;;16.40;1.00;;;;;;4959794;28;20497;-75
2022/10/14 15:19:34;;;;;;;0.60;0.10;;;16.40;1.00;;;;;;4952246;28;20483;-76
2022/10/14 15:22:40;;;;;;;0.60;0.10;;;16.50;1.00;;;;;;4939640;29;20459;-73
2022/10/14 15:25:09;;;;;;;0.60;0.10;;;16.50;1.00;;;;;;4949569;28;20508;-76
2022/10/14 15:27:59;;;;;;;0.60;0.10;;;16.90;1.00;;;;;;4955021;29;20985;-74
2022/10/14 15:30:34;;;;;;;0.60;0.10;;;16.40;1.00;;;;;;4964057;28;20451;-73
2022/10/14 15:33:14;;;;;;;0.60;0.10;;;16.40;1.00;;;;;;4943887;28;20490;-75
2022/10/14 15:35:45;;;;;;;0.60;0.10;;;16.40;1.00;;;;;;4950605;28;20533;-74
2022/10/14 15:38:15;;;;;;;0.60;0.10;;;16.40;1.00;;;;;;4962264;28;20475;-74
2022/10/14 15:40:44;;;;;;;0.60;0.17;;;16.40;1.00;;;;;;4952345;28;20448;-74
2022/10/14 15:43:15;;;;;;;0.60;0.10;;;16.40;1.00;;;;;;4970476;28;20474;-74
2022/10/14 15:47:17;;;;;;;0.60;0.10;;;16.40;1.00;;;;;;4949844;28;20548;-75
2022/10/14 15:48:35;;;;;;;0.60;0.10;;;16.40;1.00;;;;;;4956138;28;20490;-75
2022/10/14 15:51:04;;;;;;;0.60;0.10;;;16.40;1.00;;;;;;4952876;28;20954;-74
2022/10/14 15:53:33;;;;;;;0.60;0.10;;;18.00;1.00;;;;;;4966182;28;20459;-78
2022/10/14 15:56:01;;;;;;;0.60;0.10;;;16.40;1.00;;;;;;4970250;28;20500;-76
2022/10/14 15:58:29;;;;;;;0.60;0.10;;;16.40;1.00;;;;;;4958089;28;20487;-76
2022/10/14 16:00:57;;;;;;;0.60;0.10;;;16.40;1.00;;;;;;4965809;28;20847;-75
2022/10/14 16:03:25;;;;;;;0.60;0.10;;;16.40;1.00;;;;;;4961249;28;20448;-75
2022/10/14 16:05:53;;;;;;;0.60;0.10;;;16.40;1.00;;;;;;4949594;28;20478;-76
2022/10/14 16:08:22;;;;;;;0.60;0.10;;;16.40;1.00;;;;;;4968716;28;20479;-76
2022/10/14 16:10:53;;;;;;;0.60;0.10;;;16.40;1.00;;;;;;4967215;28;21121;-74
2022/10/14 16:13:21;;;;;;;0.60;0.10;;;16.40;1.00;;;;;;4957631;28;20506;-77
2022/10/14 16:15:52;;;;;;;0.60;0.10;;;16.40;1.00;;;;;;4941363;29;20472;-76
2022/10/14 16:18:20;;;;;;;0.60;0.10;;;16.40;1.00;;;;;;4951040;28;20505;-80
2022/10/14 16:20:48;;;;;;;0.60;0.10;;;16.40;1.00;;;;;;4967957;28;20439;-79
2022/10/14 16:23:17;;;;;;;0.60;0.10;;;16.40;1.00;;;;;;4966810;28;20457;-77
2022/10/14 16:25:48;;;;;;;0.60;0.10;;;16.40;1.00;;;;;;4975169;28;20492;-77
2022/10/14 16:28:19;;;;;;;0.60;0.10;;;16.40;1.00;;;;;;4962832;28;20474;-76
2022/10/14 16:30:49;;;;;;;0.60;0.10;;;16.40;1.00;;;;;;4940975;29;20451;-78
2022/10/14 16:33:17;;;;;;;0.60;0.10;;;16.40;1.00;;;;;;4947287;29;20451;-77
2022/10/14 16:35:49;;;;;;;0.60;0.10;;;16.40;1.00;;;;;;4949743;28;20552;-77
2022/10/14 16:38:17;;;;;;;0.60;0.10;;;16.30;1.00;;;;;;4953385;29;20451;-79
2022/10/14 16:40:54;;;;;;;0.60;0.20;;;16.30;1.00;;;;;;4947975;28;20451;-76
2022/10/14 16:43:22;;;;;;;0.60;0.10;;;16.30;1.00;;;;;;4948970;28;20532;-75
2022/10/14 16:45:49;;;;;;;0.60;0.17;;;16.30;1.00;;;;;;4956807;28;20478;-76
2022/10/14 16:48:18;;;;;;;0.60;0.10;;;16.30;1.00;;;;;;4974215;28;20473;-78
2022/10/14 16:50:48;;;;;;;0.60;0.10;;;16.30;1.00;;;;;;4988428;28;20447;-77
2022/10/14 16:56:51;;;;;;;0.80;0.73;;;16.30;1.00;;;;;;4968760;28;20487;-77
2022/10/14 16:58:52;;;;;;;0.93;0.77;;;16.30;1.00;;;;;;4967116;29;20467;-77
2022/10/14 17:01:21;;;;;;;0.60;0.10;;;16.20;1.00;;;;;;4965773;28;20443;-76
2022/10/14 17:03:49;;;;;;;0.60;0.10;;;16.20;1.00;;;;;;4966856;28;20539;-76
2022/10/14 17:06:16;;;;;;;0.60;0.10;;;16.20;1.00;;;;;;4938667;29;20448;-76
2022/10/14 17:08:51;;;;;;;1.47;0.93;;;16.20;1.00;;;;;;4940086;29;20578;-76
2022/10/14 17:11:20;;;;;;;0.60;0.10;;;16.20;1.00;;;;;;4969662;28;20458;-76
2022/10/14 17:13:51;;;;;;;0.73;0.27;;;16.10;4.30;;;;;;4963303;28;20460;-77
2022/10/14 17:16:19;;;;;;;0.60;0.10;;;16.10;6.10;;;;;;4962192;28;20458;-76
2022/10/14 17:18:47;;;;;;;0.60;0.10;;;16.10;8.20;;;;;;4958339;28;20475;-78
2022/10/14 17:21:21;;;;;;;0.60;0.10;;;16.20;10.50;;;;;;4952364;28;20457;-78
2022/10/14 17:23:49;;;;;;;0.60;0.10;;;16.10;10.80;;;;;;4967014;28;20493;-77
2022/10/14 17:26:19;;;;;;;0.60;0.10;;;16.10;12.90;;;;;;4970629;28;20450;-76
2022/10/14 17:28:48;;;;;;;0.60;0.50;;;16.20;13.90;;;;;;4959422;28;20482;-79
2022/10/14 17:31:18;;;;;;;0.60;0.10;;;16.10;16.50;;;;;;4962068;28;20460;-78
2022/10/14 17:33:47;;;;;;;0.60;0.20;;;16.20;17.70;;;;;;4949415;28;20456;-78
2022/10/14 17:36:18;;;;;;;0.60;0.10;;;16.20;18.90;;;;;;4960711;28;20451;-78
2022/10/14 17:38:48;;;;;;;0.93;0.30;;;16.10;20.00;;;;;;4974154;28;20534;-79